< < Back
Terminal Aerodrome Forecast


Current Version              Previous Versions:   1  2  3  4  5  6  7  8  9  

Terminal Aerodrome Forecast

187
FTUS42 KGSP 281132
TAFAVL
TAF
KAVL 281132Z 2812/2912 18004KT 3SM BR BKN020
      TEMPO 2812/2813 00000KT P6SM NSW SCT020
     FM281300 18006KT P6SM SCT050
     FM290000 00000KT P6SM SCT100=



Latest METAR

252
SAUS70 KWBC 281158
MTRAVL
METAR KAVL 281154Z 00000KT 8SM CLR 15/14 A3024 RMK AO2 SLP218 T01500139
10167 20139 53014


USA.gov is the U.S. government's official web portal to all federal, state and local government web resources and services.